Time;durP1;ratioP1;P1;durP2;ratioP2;P2;SDS_P1;SDS_P2;PMS_P1;PMS_P2;Temp;Humidity;BMP_temperature;BMP_pressure;BME280_temperature;BME280_humidity;BME280_pressure;Samples;Min_cycle;Max_cycle;Signal;HPM_P1;HPM_P2
2021/04/07 00:01:46;;;;;;;6.38;2.58;;;;;;;;;;5094683;28;20401;-76
2021/04/07 00:04:12;;;;;;;8.05;2.90;;;;;;;;;;5094944;28;20463;-76
2021/04/07 00:06:39;;;;;;;5.10;2.35;;;;;;;;;;5094605;28;20032;-76
2021/04/07 00:09:05;;;;;;;7.60;2.92;;;;;;;;;;5094450;28;20051;-76
2021/04/07 00:11:30;;;;;;;7.13;2.50;;;;;;;;;;5094569;28;20031;-76
2021/04/07 00:13:57;;;;;;;9.57;2.60;;;;;;;;;;5095040;28;20109;-76
2021/04/07 00:16:23;;;;;;;7.97;2.80;;;;;;;;;;5094682;28;20043;-76
2021/04/07 00:18:48;;;;;;;9.43;2.58;;;;;;;;;;5094674;28;20032;-76
2021/04/07 00:21:14;;;;;;;6.82;2.97;;;;;;;;;;5092937;28;20036;-76
2021/04/07 00:23:39;;;;;;;6.63;2.20;;;;;;;;;;5094396;28;20375;-76
2021/04/07 00:26:05;;;;;;;5.07;2.50;;;;;;;;;;5094321;28;20032;-76
2021/04/07 00:28:30;;;;;;;6.63;2.83;;;;;;;;;;5094692;28;20028;-76
2021/04/07 00:30:57;;;;;;;6.20;2.97;;;;;;;;;;5093849;28;20386;-76
2021/04/07 00:33:22;;;;;;;7.82;2.88;;;;;;;;;;5094278;28;20044;-76
2021/04/07 00:35:48;;;;;;;9.45;3.00;;;;;;;;;;5093089;28;20039;-76
2021/04/07 00:38:13;;;;;;;8.48;3.03;;;;;;;;;;5094100;28;20382;-76
2021/04/07 00:40:39;;;;;;;7.25;2.70;;;;;;;;;;5093207;28;20024;-76
2021/04/07 00:43:05;;;;;;;5.90;2.83;;;;;;;;;;5094068;28;20036;-76
2021/04/07 00:45:31;;;;;;;7.32;2.83;;;;;;;;;;5094302;28;20157;-76
2021/04/07 00:47:56;;;;;;;10.52;3.67;;;;;;;;;;5093909;28;20149;-76
2021/04/07 00:50:24;;;;;;;7.88;3.33;;;;;;;;;;5094084;28;20110;-76
2021/04/07 00:52:50;;;;;;;7.95;2.60;;;;;;;;;;5094265;28;20032;-76
2021/04/07 00:55:25;;;;;;;6.75;3.50;;;;;;;;;;5092663;28;20119;-77
2021/04/07 00:57:51;;;;;;;7.15;3.00;;;;;;;;;;5092493;28;20036;-76
2021/04/07 01:00:19;;;;;;;10.02;3.53;;;;;;;;;;5094044;28;20040;-76
2021/04/07 01:02:45;;;;;;;10.57;3.50;;;;;;;;;;5092850;28;20032;-77
2021/04/07 01:05:11;;;;;;;9.57;4.38;;;;;;;;;;5093943;28;20032;-76
2021/04/07 01:07:37;;;;;;;9.07;4.05;;;;;;;;;;5093766;28;20070;-77
2021/04/07 01:10:08;;;;;;;7.28;3.25;;;;;;;;;;5093432;28;20436;-76
2021/04/07 01:12:34;;;;;;;4.47;2.60;;;;;;;;;;5092172;28;20149;-76
2021/04/07 01:15:00;;;;;;;12.23;3.60;;;;;;;;;;5093581;28;20028;-76
2021/04/07 01:17:26;;;;;;;10.07;3.53;;;;;;;;;;5093348;28;20050;-76
2021/04/07 01:19:51;;;;;;;6.50;3.05;;;;;;;;;;5093698;28;20044;-76
2021/04/07 01:22:20;;;;;;;11.10;3.88;;;;;;;;;;5093663;28;20024;-76
2021/04/07 01:24:47;;;;;;;8.02;3.22;;;;;;;;;;5093353;28;20036;-75
2021/04/07 01:27:12;;;;;;;10.10;3.63;;;;;;;;;;5091782;28;20039;-76
2021/04/07 01:29:37;;;;;;;8.38;3.60;;;;;;;;;;5093364;28;20036;-76
2021/04/07 01:32:03;;;;;;;5.40;2.55;;;;;;;;;;5092947;28;20492;-76
2021/04/07 01:34:30;;;;;;;5.03;3.03;;;;;;;;;;5092179;28;20039;-76
2021/04/07 01:36:56;;;;;;;5.47;3.13;;;;;;;;;;5092066;28;20032;-76
2021/04/07 01:39:24;;;;;;;6.95;3.22;;;;;;;;;;5092863;28;20032;-76
2021/04/07 01:41:50;;;;;;;7.82;3.00;;;;;;;;;;5070101;28;20115;-76
2021/04/07 01:44:18;;;;;;;5.55;2.78;;;;;;;;;;5078116;28;20087;-76
2021/04/07 01:46:44;;;;;;;6.68;2.60;;;;;;;;;;5079561;28;20113;-76
2021/04/07 01:49:11;;;;;;;9.75;2.80;;;;;;;;;;5079140;28;20038;-76
2021/04/07 01:51:37;;;;;;;5.13;2.25;;;;;;;;;;5078279;28;20478;-76
2021/04/07 01:54:06;;;;;;;5.13;2.42;;;;;;;;;;5079551;28;20040;-76
2021/04/07 01:56:31;;;;;;;6.18;2.40;;;;;;;;;;5079660;28;20032;-76
2021/04/07 01:59:05;;;;;;;6.45;2.42;;;;;;;;;;5079098;28;20032;-76
2021/04/07 02:01:31;;;;;;;7.95;2.30;;;;;;;;;;5079808;28;20024;-76
2021/04/07 02:03:57;;;;;;;10.45;2.72;;;;;;;;;;5079431;28;20043;-76
2021/04/07 02:06:23;;;;;;;7.38;2.90;;;;;;;;;;5078112;28;20504;-76
2021/04/07 02:08:48;;;;;;;11.90;2.38;;;;;;;;;;5078059;28;20044;-76
2021/04/07 02:11:16;;;;;;;6.97;2.47;;;;;;;;;;5079638;28;20366;-76
2021/04/07 02:13:42;;;;;;;9.70;2.75;;;;;;;;;;5099050;28;20039;-76
2021/04/07 02:16:15;;;;;;;8.70;2.78;;;;;;;;;;5098123;28;20035;-76
2021/04/07 02:18:41;;;;;;;5.93;2.20;;;;;;;;;;5099611;28;20048;-76
2021/04/07 02:21:08;;;;;;;8.80;2.78;;;;;;;;;;5099738;28;20036;-76
2021/04/07 02:23:37;;;;;;;7.10;2.42;;;;;;;;;;5099733;28;20051;-76
2021/04/07 02:26:04;;;;;;;17.92;3.78;;;;;;;;;;5099428;28;20149;-76
2021/04/07 02:28:29;;;;;;;8.40;2.30;;;;;;;;;;5097864;28;20442;-75
2021/04/07 02:30:55;;;;;;;10.15;2.72;;;;;;;;;;5099497;28;20044;-76
2021/04/07 02:33:20;;;;;;;12.57;3.20;;;;;;;;;;5099469;28;20505;-75
2021/04/07 02:35:46;;;;;;;16.63;3.95;;;;;;;;;;5099708;28;20441;-76
2021/04/07 02:38:12;;;;;;;13.43;3.55;;;;;;;;;;5099417;28;20046;-76
2021/04/07 02:40:38;;;;;;;15.40;2.97;;;;;;;;;;5098761;28;20103;-76
2021/04/07 02:43:04;;;;;;;6.95;2.55;;;;;;;;;;5099249;28;20466;-76
2021/04/07 02:45:29;;;;;;;16.17;2.92;;;;;;;;;;5099765;28;20040;-76
2021/04/07 02:47:55;;;;;;;13.48;2.85;;;;;;;;;;5097903;28;20036;-75
2021/04/07 02:50:21;;;;;;;18.75;3.60;;;;;;;;;;5099562;28;20081;-76
2021/04/07 02:52:46;;;;;;;13.73;3.55;;;;;;;;;;5099584;28;20165;-76
2021/04/07 02:55:12;;;;;;;13.13;3.20;;;;;;;;;;5095932;28;20415;-75
2021/04/07 02:57:38;;;;;;;15.90;3.40;;;;;;;;;;5094382;28;20040;-76
2021/04/07 03:00:05;;;;;;;10.85;3.38;;;;;;;;;;5096310;28;20020;-76
2021/04/07 03:02:31;;;;;;;19.75;3.42;;;;;;;;;;5093637;28;20031;-75
2021/04/07 03:04:57;;;;;;;10.75;2.88;;;;;;;;;;5096055;28;20032;-76
2021/04/07 03:07:23;;;;;;;17.35;4.03;;;;;;;;;;5094570;28;20032;-75
2021/04/07 03:09:48;;;;;;;11.30;3.55;;;;;;;;;;5095191;28;20028;-76
2021/04/07 03:12:14;;;;;;;13.77;3.00;;;;;;;;;;5094591;28;20062;-76
2021/04/07 03:14:39;;;;;;;11.55;2.85;;;;;;;;;;5096057;28;20059;-76
2021/04/07 03:17:05;;;;;;;17.48;3.65;;;;;;;;;;5095766;28;20468;-76
2021/04/07 03:19:30;;;;;;;19.33;3.15;;;;;;;;;;5095716;28;20034;-75
2021/04/07 03:21:56;;;;;;;14.90;3.78;;;;;;;;;;5095881;28;20035;-75
2021/04/07 03:24:21;;;;;;;15.55;3.35;;;;;;;;;;5095277;28;20469;-76
2021/04/07 03:26:46;;;;;;;17.02;3.67;;;;;;;;;;5094331;28;20036;-75
2021/04/07 03:29:12;;;;;;;16.63;3.53;;;;;;;;;;5094034;28;20115;-75
2021/04/07 03:31:37;;;;;;;24.23;5.18;;;;;;;;;;5094352;28;20391;-75
2021/04/07 03:34:03;;;;;;;14.38;3.22;;;;;;;;;;5095388;28;20040;-75
2021/04/07 03:36:28;;;;;;;10.73;3.47;;;;;;;;;;5095220;28;20044;-76
2021/04/07 03:38:54;;;;;;;13.90;4.18;;;;;;;;;;5093109;28;20028;-75
2021/04/07 03:41:19;;;;;;;13.18;4.00;;;;;;;;;;5093750;28;20036;-75
2021/04/07 03:43:44;;;;;;;12.20;3.20;;;;;;;;;;5095180;28;20055;-75
2021/04/07 03:46:10;;;;;;;13.27;3.15;;;;;;;;;;5095162;28;20059;-76
2021/04/07 03:48:35;;;;;;;18.55;3.83;;;;;;;;;;5094995;28;20035;-76
2021/04/07 03:51:01;;;;;;;10.80;3.28;;;;;;;;;;5095330;28;20476;-75
2021/04/07 03:53:27;;;;;;;19.00;4.55;;;;;;;;;;5095247;28;20028;-75
2021/04/07 03:55:55;;;;;;;7.82;2.53;;;;;;;;;;5093517;28;20042;-76
2021/04/07 03:58:21;;;;;;;10.95;3.67;;;;;;;;;;5094696;28;20421;-76
2021/04/07 04:00:47;;;;;;;15.15;4.45;;;;;;;;;;5094134;28;20120;-75
2021/04/07 04:03:12;;;;;;;10.18;3.33;;;;;;;;;;5094956;28;20140;-76
2021/04/07 04:05:38;;;;;;;12.00;3.10;;;;;;;;;;5094882;28;20424;-76
2021/04/07 04:08:05;;;;;;;16.20;3.95;;;;;;;;;;5094553;28;20062;-75
2021/04/07 04:10:31;;;;;;;14.00;3.38;;;;;;;;;;5093232;28;20028;-76
2021/04/07 04:12:57;;;;;;;13.95;3.42;;;;;;;;;;5094584;28;20036;-76
2021/04/07 04:15:22;;;;;;;9.25;3.88;;;;;;;;;;5094673;28;20523;-76
2021/04/07 04:17:48;;;;;;;19.20;5.38;;;;;;;;;;5093263;28;20039;-76
2021/04/07 04:20:15;;;;;;;17.17;4.05;;;;;;;;;;5094597;28;20466;-76
2021/04/07 04:22:41;;;;;;;19.65;4.15;;;;;;;;;;5092855;28;20115;-76
2021/04/07 04:25:10;;;;;;;11.98;3.67;;;;;;;;;;5094416;28;20118;-75
2021/04/07 04:27:36;;;;;;;14.80;3.40;;;;;;;;;;5094039;28;20398;-75
2021/04/07 04:30:04;;;;;;;24.50;4.40;;;;;;;;;;5093289;28;20055;-76
2021/04/07 04:32:29;;;;;;;9.32;3.08;;;;;;;;;;5094368;28;20478;-76
2021/04/07 04:34:55;;;;;;;11.05;3.33;;;;;;;;;;5094188;28;20113;-76
2021/04/07 04:37:20;;;;;;;14.02;4.88;;;;;;;;;;5094106;28;20032;-76
2021/04/07 04:39:46;;;;;;;14.38;4.15;;;;;;;;;;5094228;28;20089;-76
2021/04/07 04:42:11;;;;;;;14.60;3.60;;;;;;;;;;5087868;28;20130;-76
2021/04/07 04:44:36;;;;;;;15.75;4.00;;;;;;;;;;5073894;28;20579;-76
2021/04/07 04:47:02;;;;;;;11.13;3.88;;;;;;;;;;5073581;28;20060;-75
2021/04/07 04:49:28;;;;;;;16.92;3.92;;;;;;;;;;5073287;28;20032;-75
2021/04/07 04:51:53;;;;;;;12.07;4.18;;;;;;;;;;5071566;28;20060;-76
2021/04/07 04:54:18;;;;;;;14.43;4.65;;;;;;;;;;5073459;28;20441;-76
2021/04/07 04:56:44;;;;;;;13.18;4.13;;;;;;;;;;5073588;28;20060;-76
2021/04/07 04:59:09;;;;;;;11.43;5.22;;;;;;;;;;5073150;28;20427;-75
2021/04/07 05:01:35;;;;;;;18.67;6.40;;;;;;;;;;5073548;28;20032;-76
2021/04/07 05:04:05;;;;;;;14.88;5.20;;;;;;;;;;5075904;28;20031;-76
2021/04/07 05:06:32;;;;;;;13.40;5.53;;;;;;;;;;5093397;28;20462;-75
2021/04/07 05:08:58;;;;;;;17.55;5.93;;;;;;;;;;5092552;28;20036;-76
2021/04/07 05:11:23;;;;;;;14.05;6.25;;;;;;;;;;5093969;28;20058;-75
2021/04/07 05:13:48;;;;;;;15.82;6.70;;;;;;;;;;5091976;28;20040;-76
2021/04/07 05:16:14;;;;;;;17.30;7.45;;;;;;;;;;5093781;28;20149;-76
2021/04/07 05:18:39;;;;;;;17.48;7.32;;;;;;;;;;5092843;28;20036;-76
2021/04/07 05:21:05;;;;;;;16.35;7.53;;;;;;;;;;5093404;28;20446;-76
2021/04/07 05:23:30;;;;;;;17.55;8.13;;;;;;;;;;5093498;28;20031;-76
2021/04/07 05:25:55;;;;;;;13.20;7.15;;;;;;;;;;5092446;28;20055;-76
2021/04/07 05:28:21;;;;;;;18.38;8.60;;;;;;;;;;5092198;28;20039;-75
2021/04/07 05:30:59;;;;;;;16.10;7.55;;;;;;;;;;5093120;28;20078;-75
2021/04/07 05:33:26;;;;;;;19.15;7.50;;;;;;;;;;5092757;28;20539;-76
2021/04/07 05:35:55;;;;;;;17.85;7.72;;;;;;;;;;5093507;28;20418;-75
2021/04/07 05:38:21;;;;;;;20.88;9.25;;;;;;;;;;5093146;28;20418;-76
2021/04/07 05:40:48;;;;;;;19.95;9.40;;;;;;;;;;5092191;28;20024;-76
2021/04/07 05:43:13;;;;;;;19.63;9.88;;;;;;;;;;5092948;28;20048;-76
2021/04/07 05:45:39;;;;;;;18.80;8.07;;;;;;;;;;5092214;28;20078;-75
2021/04/07 05:48:07;;;;;;;22.02;9.70;;;;;;;;;;5093164;28;20118;-76
2021/04/07 05:50:36;;;;;;;19.58;9.95;;;;;;;;;;5093173;28;20082;-75
2021/04/07 05:53:01;;;;;;;20.17;8.77;;;;;;;;;;5091992;28;20047;-76
2021/04/07 05:55:27;;;;;;;17.98;8.93;;;;;;;;;;5093127;28;20032;-76
2021/04/07 05:57:57;;;;;;;18.48;9.70;;;;;;;;;;5092710;28;20386;-76
2021/04/07 06:00:23;;;;;;;17.83;9.95;;;;;;;;;;5093160;28;20096;-76
2021/04/07 06:02:49;;;;;;;15.23;8.93;;;;;;;;;;5093099;28;20074;-76
2021/04/07 06:05:14;;;;;;;18.73;9.10;;;;;;;;;;5093301;28;20489;-76
2021/04/07 06:07:40;;;;;;;15.77;7.25;;;;;;;;;;5091876;28;20040;-76
2021/04/07 06:10:06;;;;;;;22.33;8.05;;;;;;;;;;5093204;28;20084;-76
2021/04/07 06:12:31;;;;;;;26.88;8.85;;;;;;;;;;5091516;28;20068;-76
2021/04/07 06:14:57;;;;;;;18.15;7.00;;;;;;;;;;5093124;28;20046;-76
2021/04/07 06:17:22;;;;;;;17.17;8.77;;;;;;;;;;5093226;28;20035;-76
2021/04/07 06:19:47;;;;;;;13.02;7.00;;;;;;;;;;5093073;28;20035;-76
2021/04/07 06:22:13;;;;;;;15.55;7.90;;;;;;;;;;5092140;28;20390;-76
2021/04/07 06:24:38;;;;;;;15.02;7.47;;;;;;;;;;5093618;28;20032;-78
2021/04/07 06:27:03;;;;;;;13.90;7.60;;;;;;;;;;5091471;28;20518;-77
2021/04/07 06:29:29;;;;;;;11.25;7.47;;;;;;;;;;5093915;28;20401;-77
2021/04/07 06:31:54;;;;;;;14.85;7.07;;;;;;;;;;5097030;28;20085;-78
2021/04/07 06:34:20;;;;;;;10.63;6.80;;;;;;;;;;5096924;28;20032;-77
2021/04/07 06:36:45;;;;;;;12.82;7.28;;;;;;;;;;5095808;28;20485;-77
2021/04/07 06:39:10;;;;;;;15.30;7.63;;;;;;;;;;5096513;28;20287;-77
2021/04/07 06:41:36;;;;;;;19.45;7.97;;;;;;;;;;5095717;28;20110;-77
2021/04/07 06:44:02;;;;;;;16.92;7.95;;;;;;;;;;5096375;28;20046;-77
2021/04/07 06:46:27;;;;;;;24.00;8.63;;;;;;;;;;5096425;28;20035;-77
2021/04/07 06:48:53;;;;;;;14.93;6.95;;;;;;;;;;5096339;28;20043;-76
2021/04/07 06:51:21;;;;;;;12.68;6.78;;;;;;;;;;5096541;28;20039;-76
2021/04/07 06:53:51;;;;;;;12.13;6.32;;;;;;;;;;5096008;28;20040;-77
2021/04/07 06:56:17;;;;;;;14.45;6.55;;;;;;;;;;5096032;28;20032;-77
2021/04/07 06:58:44;;;;;;;11.38;5.95;;;;;;;;;;5096030;28;20012;-76
2021/04/07 07:01:10;;;;;;;17.25;5.80;;;;;;;;;;5096226;28;20028;-77
2021/04/07 07:03:35;;;;;;;10.75;5.97;;;;;;;;;;5096534;28;20481;-76
2021/04/07 07:06:01;;;;;;;15.10;5.72;;;;;;;;;;5096614;28;20039;-77
2021/04/07 07:08:30;;;;;;;10.57;5.53;;;;;;;;;;5106832;28;20088;-77
2021/04/07 07:10:55;;;;;;;13.05;4.60;;;;;;;;;;5115264;28;20032;-77
2021/04/07 07:13:26;;;;;;;11.52;4.70;;;;;;;;;;5116431;28;20058;-77
2021/04/07 07:15:52;;;;;;;14.50;6.07;;;;;;;;;;5084405;28;20044;-77
2021/04/07 07:18:27;;;;;;;9.27;4.88;;;;;;;;;;5075718;28;20032;-78
2021/04/07 07:20:54;;;;;;;13.32;6.10;;;;;;;;;;5074506;28;20090;-78
2021/04/07 07:23:30;;;;;;;10.15;5.00;;;;;;;;;;5076001;28;20032;-78
2021/04/07 07:25:55;;;;;;;;;;;;;;;;;;5076738;28;20447;-78
2021/04/07 07:28:22;;;;;;;9.70;5.10;;;;;;;;;;5076155;28;19927;-78
2021/04/07 07:30:48;;;;;;;11.95;5.05;;;;;;;;;;5076291;28;20056;-78
2021/04/07 07:33:21;;;;;;;11.90;5.95;;;;;;;;;;5076463;28;20052;-79
2021/04/07 07:35:50;;;;;;;14.18;5.20;;;;;;;;;;5076283;28;20040;-78
2021/04/07 07:38:25;;;;;;;9.77;5.97;;;;;;;;;;5094850;28;20060;-78
2021/04/07 07:41:06;;;;;;;10.80;6.85;;;;;;;;;;5110469;28;20123;-77
2021/04/07 07:43:34;;;;;;;10.63;6.15;;;;;;;;;;5096654;28;20043;-78
2021/04/07 07:46:13;;;;;;;11.77;6.78;;;;;;;;;;5096623;28;20043;-78
2021/04/07 07:48:41;;;;;;;15.52;6.68;;;;;;;;;;5077855;28;20044;-78
2021/04/07 07:51:18;;;;;;;10.63;6.25;;;;;;;;;;5076391;28;20044;-78
2021/04/07 07:53:46;;;;;;;17.50;6.88;;;;;;;;;;5075329;28;20213;-77
2021/04/07 07:56:14;;;;;;;13.40;6.85;;;;;;;;;;5075257;28;20166;-77
2021/04/07 07:58:44;;;;;;;18.83;8.23;;;;;;;;;;5073458;28;20448;-78
2021/04/07 08:01:11;;;;;;;16.33;8.73;;;;;;;;;;5073640;28;20037;-78
2021/04/07 08:03:36;;;;;;;16.15;8.45;;;;;;;;;;5073423;28;20042;-78
2021/04/07 08:06:02;;;;;;;15.90;7.93;;;;;;;;;;5074711;28;20135;-78
2021/04/07 08:08:28;;;;;;;15.32;7.45;;;;;;;;;;5075121;28;20086;-78
2021/04/07 08:10:54;;;;;;;16.30;7.70;;;;;;;;;;5074887;28;20075;-78
2021/04/07 08:13:20;;;;;;;16.27;8.45;;;;;;;;;;5087989;28;20038;-78
2021/04/07 08:15:47;;;;;;;15.23;7.60;;;;;;;;;;5115709;28;20031;-78
2021/04/07 08:18:13;;;;;;;13.27;7.78;;;;;;;;;;5115677;28;20035;-78
2021/04/07 08:20:39;;;;;;;12.90;7.45;;;;;;;;;;5115625;28;20111;-78
2021/04/07 08:23:07;;;;;;;19.60;8.60;;;;;;;;;;5100299;28;20089;-77
2021/04/07 08:25:33;;;;;;;11.40;7.57;;;;;;;;;;5074558;28;20036;-78
2021/04/07 08:27:59;;;;;;;12.80;7.93;;;;;;;;;;5056703;28;20501;-77
2021/04/07 08:30:25;;;;;;;11.82;7.28;;;;;;;;;;5074870;28;20545;-77
2021/04/07 08:32:52;;;;;;;14.88;8.25;;;;;;;;;;5074731;28;20068;-78
2021/04/07 08:35:19;;;;;;;14.75;7.72;;;;;;;;;;5074870;28;20060;-78
2021/04/07 08:37:56;;;;;;;13.25;7.55;;;;;;;;;;5074869;28;20036;-78
2021/04/07 08:40:22;;;;;;;14.20;8.32;;;;;;;;;;5074971;28;20028;-77
2021/04/07 08:42:48;;;;;;;11.73;6.88;;;;;;;;;;5102344;28;20032;-77
2021/04/07 08:45:13;;;;;;;11.60;6.25;;;;;;;;;;5114743;28;20123;-77
2021/04/07 08:47:56;;;;;;;13.43;7.55;;;;;;;;;;5115073;27;20488;-78
2021/04/07 08:50:30;;;;;;;13.30;7.18;;;;;;;;;;5114630;28;20041;-78
2021/04/07 08:52:56;;;;;;;14.68;7.03;;;;;;;;;;5113022;28;20038;-78
2021/04/07 08:55:27;;;;;;;13.68;5.95;;;;;;;;;;5114614;28;20130;-78
2021/04/07 08:58:02;;;;;;;15.00;6.57;;;;;;;;;;5115849;28;20031;-78
2021/04/07 09:00:30;;;;;;;11.65;5.82;;;;;;;;;;5115142;28;20038;-78
2021/04/07 09:03:08;;;;;;;10.40;6.05;;;;;;;;;;5117831;28;20032;-76
2021/04/07 09:05:45;;;;;;;9.07;5.78;;;;;;;;;;5073884;28;20037;-75
2021/04/07 09:08:20;;;;;;;15.55;5.85;;;;;;;;;;5074791;28;20107;-79
2021/04/07 09:10:51;;;;;;;8.40;5.32;;;;;;;;;;5078436;28;20037;-79
2021/04/07 09:13:30;;;;;;;7.38;4.97;;;;;;;;;;5080420;28;20040;-80
2021/04/07 09:16:03;;;;;;;9.60;4.38;;;;;;;;;;5083889;28;20130;-80
2021/04/07 09:18:37;;;;;;;7.53;4.22;;;;;;;;;;5086557;28;20024;-80
2021/04/07 09:21:05;;;;;;;6.38;4.40;;;;;;;;;;5097811;28;20043;-77
2021/04/07 09:23:33;;;;;;;9.30;4.05;;;;;;;;;;5093444;28;20061;-76
2021/04/07 09:26:10;;;;;;;7.63;4.50;;;;;;;;;;5093432;28;20047;-76
2021/04/07 09:28:41;;;;;;;7.28;3.85;;;;;;;;;;5091886;28;20431;-77
2021/04/07 09:31:12;;;;;;;7.53;4.30;;;;;;;;;;5093265;28;20051;-76
2021/04/07 09:33:39;;;;;;;11.25;4.53;;;;;;;;;;5093184;28;20040;-76
2021/04/07 09:36:05;;;;;;;7.68;4.75;;;;;;;;;;5092184;28;20036;-76
2021/04/07 09:38:31;;;;;;;6.05;4.07;;;;;;;;;;5093160;28;20031;-76
2021/04/07 09:41:11;;;;;;;6.65;4.10;;;;;;;;;;5097743;28;20032;-76
2021/04/07 09:43:37;;;;;;;6.45;4.25;;;;;;;;;;5113648;28;20028;-76
2021/04/07 09:46:03;;;;;;;5.88;3.80;;;;;;;;;;5113651;28;20401;-76
2021/04/07 09:48:40;;;;;;;6.05;4.00;;;;;;;;;;5113317;28;20043;-76
2021/04/07 09:51:18;;;;;;;7.50;3.80;;;;;;;;;;5113464;28;20035;-76
2021/04/07 09:53:44;;;;;;;5.35;3.60;;;;;;;;;;5113406;28;20067;-76
2021/04/07 09:56:09;;;;;;;5.28;2.95;;;;;;;;;;5113104;28;20100;-76
2021/04/07 09:58:46;;;;;;;4.05;3.38;;;;;;;;;;5113181;28;20457;-77
2021/04/07 10:01:16;;;;;;;3.45;3.10;;;;;;;;;;5113949;28;20509;-76
2021/04/07 10:03:52;;;;;;;9.95;3.63;;;;;;;;;;5114528;28;20035;-78
2021/04/07 10:06:22;;;;;;;4.35;3.35;;;;;;;;;;5118040;28;20466;-78
2021/04/07 10:09:25;;;;;;;3.33;2.72;;;;;;;;;;5119423;28;20478;-76
2021/04/07 10:11:51;;;;;;;3.75;2.67;;;;;;;;;;5077939;28;20406;-77
2021/04/07 10:14:16;;;;;;;6.68;4.10;;;;;;;;;;5076626;28;20028;-77
2021/04/07 10:16:41;;;;;;;4.43;3.47;;;;;;;;;;5075491;28;20374;-76
2021/04/07 10:19:10;;;;;;;3.67;2.83;;;;;;;;;;5075569;28;20099;-77
2021/04/07 10:21:37;;;;;;;4.43;2.55;;;;;;;;;;5077600;28;20103;-77
2021/04/07 10:24:04;;;;;;;5.35;2.53;;;;;;;;;;5076659;28;20379;-77
2021/04/07 10:26:31;;;;;;;3.15;2.40;;;;;;;;;;5076167;28;20043;-78
2021/04/07 10:29:04;;;;;;;5.88;2.13;;;;;;;;;;5078905;28;20020;-77
2021/04/07 10:31:41;;;;;;;2.35;2.00;;;;;;;;;;5063325;28;20136;-80
2021/04/07 10:34:09;;;;;;;4.38;2.28;;;;;;;;;;5084338;28;20049;-78
2021/04/07 10:36:40;;;;;;;4.28;2.50;;;;;;;;;;5083696;28;20029;-77
2021/04/07 10:39:16;;;;;;;2.97;2.17;;;;;;;;;;5081190;28;20375;-77
2021/04/07 10:41:48;;;;;;;;;;;;;;;;;;5076148;28;20032;-76
2021/04/07 10:44:28;;;;;;;2.58;2.20;;;;;;;;;;5076543;28;19912;-77
2021/04/07 10:46:55;;;;;;;3.25;2.28;;;;;;;;;;5058484;28;20036;-77
2021/04/07 10:49:24;;;;;;;2.88;2.28;;;;;;;;;;5076581;28;20040;-77
2021/04/07 10:52:04;;;;;;;3.70;2.60;;;;;;;;;;5075343;28;20043;-74
2021/04/07 10:54:30;;;;;;;4.57;2.25;;;;;;;;;;5075813;28;20085;-75
2021/04/07 10:57:07;;;;;;;4.85;2.85;;;;;;;;;;5076243;28;20036;-75
2021/04/07 10:59:34;;;;;;;3.22;2.40;;;;;;;;;;5075431;28;20064;-75
2021/04/07 11:02:12;;;;;;;2.75;2.50;;;;;;;;;;5080580;28;20047;-75
2021/04/07 11:04:39;;;;;;;3.35;2.72;;;;;;;;;;5097221;28;20064;-75
2021/04/07 11:07:06;;;;;;;2.83;2.47;;;;;;;;;;5078908;28;20105;-76
2021/04/07 11:09:35;;;;;;;4.10;2.97;;;;;;;;;;5091964;28;20036;-77
2021/04/07 11:12:03;;;;;;;3.03;2.72;;;;;;;;;;5076979;28;20036;-76
2021/04/07 11:14:29;;;;;;;3.28;2.97;;;;;;;;;;5077428;28;20096;-80
2021/04/07 11:17:01;;;;;;;7.45;2.85;;;;;;;;;;5077099;28;20482;-77
2021/04/07 11:19:35;;;;;;;5.20;2.80;;;;;;;;;;5078860;28;20477;-77
2021/04/07 11:22:01;;;;;;;4.00;3.22;;;;;;;;;;5077471;28;20052;-76
2021/04/07 11:24:26;;;;;;;4.25;3.13;;;;;;;;;;5076495;28;20042;-80
2021/04/07 11:26:53;;;;;;;3.78;2.60;;;;;;;;;;5077370;28;20068;-77
2021/04/07 11:29:19;;;;;;;3.25;2.55;;;;;;;;;;5077003;28;20048;-76
2021/04/07 11:31:46;;;;;;;4.00;2.63;;;;;;;;;;5078957;28;20040;-78
2021/04/07 11:34:13;;;;;;;3.20;2.33;;;;;;;;;;5078923;28;20425;-77
2021/04/07 11:42:02;;;;;;;3.45;2.63;;;;;;;;;;5095926;28;20386;-76
2021/04/07 11:44:29;;;;;;;3.00;2.67;;;;;;;;;;5095492;28;20389;-74
2021/04/07 11:46:56;;;;;;;3.53;2.47;;;;;;;;;;5095439;28;20066;-76
2021/04/07 11:49:21;;;;;;;3.03;2.45;;;;;;;;;;5111679;28;20477;-76
2021/04/07 11:51:47;;;;;;;3.15;2.60;;;;;;;;;;5114351;28;20055;-76
2021/04/07 11:54:13;;;;;;;2.92;2.53;;;;;;;;;;5115429;28;20042;-76
2021/04/07 11:56:44;;;;;;;2.65;2.42;;;;;;;;;;5112290;28;20038;-76
2021/04/07 11:59:17;;;;;;;5.20;2.50;;;;;;;;;;5073443;28;20032;-76
2021/04/07 12:01:47;;;;;;;4.00;2.53;;;;;;;;;;5074679;28;20070;-76
2021/04/07 12:04:14;;;;;;;3.58;2.78;;;;;;;;;;5074991;28;20026;-78
2021/04/07 12:06:40;;;;;;;2.83;2.55;;;;;;;;;;5074682;28;20029;-78
2021/04/07 12:09:06;;;;;;;4.82;3.00;;;;;;;;;;5074737;28;20036;-76
2021/04/07 12:11:32;;;;;;;3.25;2.90;;;;;;;;;;5074870;28;20113;-76
2021/04/07 12:13:58;;;;;;;4.32;3.10;;;;;;;;;;5074459;28;20039;-76
2021/04/07 12:16:23;;;;;;;3.95;3.40;;;;;;;;;;5074698;28;20036;-76
2021/04/07 12:18:48;;;;;;;4.28;3.53;;;;;;;;;;5073954;28;20032;-77
2021/04/07 12:21:16;;;;;;;3.90;3.50;;;;;;;;;;5074148;28;20082;-76
2021/04/07 12:23:42;;;;;;;4.55;3.72;;;;;;;;;;5074292;28;20119;-76
2021/04/07 12:26:07;;;;;;;4.15;3.33;;;;;;;;;;5074188;28;20424;-78
2021/04/07 12:28:34;;;;;;;5.38;3.47;;;;;;;;;;5074991;28;20044;-77
2021/04/07 12:31:00;;;;;;;4.28;3.72;;;;;;;;;;5072671;28;20359;-78
2021/04/07 12:33:28;;;;;;;4.85;3.92;;;;;;;;;;5073398;28;20040;-79
2021/04/07 12:36:03;;;;;;;5.07;3.88;;;;;;;;;;5074061;28;20028;-78
2021/04/07 12:38:30;;;;;;;4.70;3.60;;;;;;;;;;5072995;28;20040;-78
2021/04/07 12:40:57;;;;;;;4.63;3.72;;;;;;;;;;5073785;28;20055;-78
2021/04/07 12:43:23;;;;;;;5.05;4.03;;;;;;;;;;5073959;28;20032;-78
2021/04/07 12:45:49;;;;;;;6.28;4.30;;;;;;;;;;5074224;28;20028;-78
2021/04/07 12:48:15;;;;;;;4.40;3.20;;;;;;;;;;5072348;28;20041;-78
2021/04/07 12:50:42;;;;;;;4.07;3.35;;;;;;;;;;5073618;28;20678;-78
2021/04/07 12:53:08;;;;;;;4.45;3.38;;;;;;;;;;5073849;28;20043;-77
2021/04/07 12:55:33;;;;;;;5.32;3.83;;;;;;;;;;5073682;28;20032;-77
2021/04/07 12:58:00;;;;;;;5.32;3.60;;;;;;;;;;5073405;28;20483;-78
2021/04/07 13:00:27;;;;;;;3.47;3.17;;;;;;;;;;5073515;28;20032;-78
2021/04/07 13:02:53;;;;;;;4.45;3.22;;;;;;;;;;5073802;28;20423;-77
2021/04/07 13:05:19;;;;;;;4.53;3.53;;;;;;;;;;5073549;28;20031;-77
2021/04/07 13:07:45;;;;;;;4.28;3.20;;;;;;;;;;5073388;28;20416;-77
2021/04/07 13:10:12;;;;;;;4.85;3.15;;;;;;;;;;5073420;28;20033;-78
2021/04/07 13:12:37;;;;;;;4.47;3.15;;;;;;;;;;5072160;28;20047;-77
2021/04/07 13:15:03;;;;;;;6.35;3.10;;;;;;;;;;5073523;28;20028;-79
2021/04/07 13:17:28;;;;;;;4.43;2.88;;;;;;;;;;5073347;28;20032;-77
2021/04/07 13:19:56;;;;;;;4.38;3.10;;;;;;;;;;5073613;28;20029;-77
2021/04/07 13:22:21;;;;;;;5.68;3.30;;;;;;;;;;5071964;28;20036;-77
2021/04/07 13:24:47;;;;;;;6.28;3.72;;;;;;;;;;5073252;28;20036;-78
2021/04/07 13:27:13;;;;;;;5.15;3.58;;;;;;;;;;5073118;28;20407;-78
2021/04/07 13:29:39;;;;;;;6.05;3.75;;;;;;;;;;5072825;28;20047;-78
2021/04/07 13:32:07;;;;;;;6.03;3.80;;;;;;;;;;5073199;28;20036;-78
2021/04/07 13:34:41;;;;;;;7.15;3.95;;;;;;;;;;5075682;28;20399;-79
2021/04/07 13:37:19;;;;;;;6.22;3.28;;;;;;;;;;5092041;28;20040;-78
2021/04/07 13:39:59;;;;;;;6.90;3.70;;;;;;;;;;5088245;28;20020;-79
2021/04/07 13:42:51;;;;;;;7.22;3.83;;;;;;;;;;5071896;28;20036;-77
2021/04/07 13:45:18;;;;;;;5.75;3.72;;;;;;;;;;5073021;28;20037;-78
2021/04/07 13:47:45;;;;;;;6.57;4.45;;;;;;;;;;5072710;28;20039;-77
2021/04/07 13:50:11;;;;;;;7.18;4.35;;;;;;;;;;5073109;28;20082;-77
2021/04/07 13:52:37;;;;;;;7.07;3.92;;;;;;;;;;5072966;28;20532;-77
2021/04/07 13:55:03;;;;;;;8.88;4.07;;;;;;;;;;5072842;28;20031;-77
2021/04/07 13:57:29;;;;;;;6.35;4.63;;;;;;;;;;5073136;28;20485;-77
2021/04/07 13:59:56;;;;;;;9.30;4.95;;;;;;;;;;5074657;28;20025;-77
2021/04/07 14:02:22;;;;;;;8.55;4.38;;;;;;;;;;5057086;28;20414;-76
2021/04/07 14:04:48;;;;;;;5.55;3.97;;;;;;;;;;5074966;28;20036;-77
2021/04/07 14:07:15;;;;;;;4.80;4.25;;;;;;;;;;5074872;28;20031;-77
2021/04/07 14:09:42;;;;;;;10.48;4.63;;;;;;;;;;5073716;28;20032;-77
2021/04/07 14:12:07;;;;;;;5.80;4.30;;;;;;;;;;5073633;28;20040;-78
2021/04/07 14:14:33;;;;;;;6.30;4.20;;;;;;;;;;5073607;28;20033;-78
2021/04/07 14:16:59;;;;;;;6.95;4.45;;;;;;;;;;5079081;28;20048;-82
2021/04/07 14:19:24;;;;;;;9.02;4.90;;;;;;;;;;5078170;28;20043;-80
2021/04/07 14:21:50;;;;;;;5.55;4.10;;;;;;;;;;5080967;28;20036;-80
2021/04/07 14:24:15;;;;;;;7.10;3.95;;;;;;;;;;5077580;28;20066;-80
2021/04/07 14:26:41;;;;;;;5.25;4.00;;;;;;;;;;5073768;28;20032;-78
2021/04/07 14:29:07;;;;;;;9.77;4.95;;;;;;;;;;5073747;28;20104;-78
2021/04/07 14:31:32;;;;;;;6.30;4.40;;;;;;;;;;5082047;28;20072;-79
2021/04/07 14:33:58;;;;;;;5.25;4.50;;;;;;;;;;5084370;28;20044;-79
2021/04/07 14:36:24;;;;;;;6.18;4.90;;;;;;;;;;5081606;28;20033;-79
2021/04/07 14:38:50;;;;;;;9.13;4.70;;;;;;;;;;5085643;28;20035;-79
2021/04/07 14:41:15;;;;;;;4.93;4.05;;;;;;;;;;5099371;28;20129;-78
2021/04/07 14:43:41;;;;;;;5.63;4.47;;;;;;;;;;5093352;28;20374;-78
2021/04/07 14:46:10;;;;;;;4.85;4.30;;;;;;;;;;5093865;28;20040;-77